createdAt,value
2022-09-22T00:01:51.167Z,5746.10938
2022-09-22T00:16:53.595Z,459.45612
2022-09-22T00:31:55.861Z,476.90384
2022-09-22T00:46:58.134Z,406.14371
2022-09-22T01:02:00.460Z,331.50632
2022-09-22T01:17:03.932Z,262.68484
2022-09-22T01:32:06.397Z,132.79639
2022-09-22T01:47:08.872Z,36.83403
2022-09-22T02:02:11.584Z,8.72385
2022-09-22T02:17:14.154Z,0
2022-09-22T02:32:16.661Z,0
2022-09-22T02:47:19.117Z,0
2022-09-22T03:02:21.379Z,0
2022-09-22T03:17:23.898Z,0
2022-09-22T03:32:26.144Z,0
2022-09-22T03:47:28.353Z,0
2022-09-22T04:02:30.658Z,0
2022-09-22T04:17:32.941Z,0
2022-09-22T04:32:35.220Z,0
2022-09-22T04:47:37.456Z,0
2022-09-22T05:02:39.648Z,0
2022-09-22T05:17:41.901Z,0
2022-09-22T05:32:44.135Z,0
2022-09-22T05:47:46.349Z,0
2022-09-22T06:02:48.868Z,0
2022-09-22T06:17:51.090Z,0
2022-09-22T06:32:53.352Z,0
2022-09-22T06:47:55.611Z,0
2022-09-22T07:02:57.826Z,0
2022-09-22T07:18:00.077Z,0
2022-09-22T07:33:02.357Z,0
2022-09-22T07:48:04.787Z,0
2022-09-22T08:03:06.989Z,0
2022-09-22T08:18:09.242Z,0
2022-09-22T08:33:11.489Z,0
2022-09-22T08:48:13.728Z,0
2022-09-22T09:03:15.993Z,0
2022-09-22T09:18:18.240Z,0
2022-09-22T09:33:20.427Z,0
2022-09-22T09:48:22.638Z,0
2022-09-22T10:03:24.953Z,0
2022-09-22T10:18:27.301Z,0
2022-09-22T10:33:29.665Z,0
2022-09-22T10:48:31.904Z,0
2022-09-22T11:03:34.111Z,0
2022-09-22T11:18:39.528Z,0
2022-09-22T11:33:42.112Z,0
2022-09-22T11:48:44.340Z,0
2022-09-22T12:03:46.636Z,0
2022-09-22T12:18:48.931Z,0
2022-09-22T12:33:51.279Z,0
2022-09-22T12:48:53.665Z,0
2022-09-22T13:03:56.052Z,0
2022-09-22T13:18:58.285Z,0
2022-09-22T13:34:00.731Z,3.87727
2022-09-22T13:49:02.926Z,23.2636
2022-09-22T14:04:05.369Z,72.69875
2022-09-22T14:19:07.726Z,150.24409
2022-09-22T14:34:09.957Z,225.8508
2022-09-22T14:49:12.177Z,371.24829
2022-09-22T15:04:14.467Z,508.89127
2022-09-22T15:19:16.481Z,623.27063
2022-09-22T15:34:18.707Z,599.03772
2022-09-22T15:49:21.141Z,604.85364
2022-09-22T16:04:23.524Z,728.92615
2022-09-22T16:19:25.741Z,728.92615
2022-09-22T16:34:27.950Z,739.58868
2022-09-22T16:49:30.154Z,827.79651
2022-09-22T17:04:32.533Z,913.09637
2022-09-22T17:19:34.749Z,1209.70728
2022-09-22T17:34:36.969Z,1278.52881
2022-09-22T17:49:39.211Z,1800.99048
2022-09-22T18:04:41.436Z,1892.1062
2022-09-22T18:19:43.638Z,1291.12988
2022-09-22T18:34:45.850Z,1308.57751
2022-09-22T18:49:48.118Z,1603.24988
2022-09-22T19:04:50.428Z,2377.73389
2022-09-22T19:19:52.769Z,3081.45776
2022-09-22T19:34:55.000Z,4337.69238
2022-09-22T19:49:57.241Z,3295.67676
2022-09-22T20:04:59.411Z,2407.78271
2022-09-22T20:20:01.638Z,2369.01001
2022-09-22T20:35:03.850Z,3176.45093
2022-09-22T20:50:06.095Z,2320.54419
2022-09-22T21:05:08.329Z,1998.73108
2022-09-22T21:20:10.576Z,2011.33215
2022-09-22T21:35:12.812Z,2156.72974
2022-09-22T21:50:15.039Z,2111.17188
2022-09-22T22:05:17.272Z,2324.42139
2022-09-22T22:20:19.530Z,2168.36157
2022-09-22T22:35:21.792Z,1653.6543
2022-09-22T22:50:23.995Z,1374.49109
2022-09-22T23:05:26.255Z,1225.21631
2022-09-22T23:20:28.518Z,1185.47437
2022-09-22T23:35:30.865Z,1194.19824
2022-09-22T23:50:33.113Z,1836.85522
